createdAt,value
2018-05-27T00:00:52.897Z,19.00
2018-05-27T00:03:21.425Z,18.90
2018-05-27T00:05:49.205Z,18.90
2018-05-27T00:08:17.052Z,18.80
2018-05-27T00:10:44.859Z,18.90
2018-05-27T00:13:13.710Z,18.80
2018-05-27T00:15:41.472Z,18.80
2018-05-27T00:18:09.236Z,18.80
2018-05-27T00:20:37.020Z,18.80
2018-05-27T00:23:05.689Z,18.70
2018-05-27T00:25:33.451Z,18.60
2018-05-27T00:28:01.318Z,18.60
2018-05-27T00:30:29.119Z,18.60
2018-05-27T00:32:56.981Z,18.60
2018-05-27T00:35:24.817Z,18.60
2018-05-27T00:37:52.685Z,18.60
2018-05-27T00:40:20.557Z,18.50
2018-05-27T00:42:48.420Z,18.50
2018-05-27T00:45:16.146Z,18.50
2018-05-27T00:47:44.701Z,18.40
2018-05-27T00:50:13.349Z,18.40
2018-05-27T00:52:41.215Z,18.40
2018-05-27T00:55:09.081Z,18.30
2018-05-27T00:57:36.887Z,18.30
2018-05-27T01:00:05.433Z,18.20
2018-05-27T01:02:33.235Z,18.20
2018-05-27T01:05:01.786Z,18.20
2018-05-27T01:07:29.547Z,18.20
2018-05-27T01:09:57.356Z,18.20
2018-05-27T01:12:25.896Z,18.20
2018-05-27T01:14:53.645Z,18.10
2018-05-27T01:17:21.520Z,18.10
2018-05-27T01:19:49.388Z,18.10
2018-05-27T01:22:17.259Z,18.10
2018-05-27T01:24:45.122Z,18.10
2018-05-27T01:27:12.934Z,18.10
2018-05-27T01:29:41.574Z,18.10
2018-05-27T01:32:09.288Z,18.00
2018-05-27T01:34:38.585Z,18.10
2018-05-27T01:37:07.223Z,18.00
2018-05-27T01:39:35.087Z,18.00
2018-05-27T01:42:02.892Z,18.00
2018-05-27T01:44:31.436Z,18.00
2018-05-27T01:46:59.309Z,17.90
2018-05-27T01:49:27.098Z,17.90
2018-05-27T01:51:54.859Z,17.90
2018-05-27T01:54:23.416Z,17.80
2018-05-27T01:56:51.018Z,17.80
2018-05-27T01:59:19.597Z,17.80
2018-05-27T02:01:47.361Z,17.80
2018-05-27T02:04:16.009Z,17.70
2018-05-27T02:06:43.717Z,17.70
2018-05-27T02:09:12.256Z,17.70
2018-05-27T02:11:40.121Z,17.70
2018-05-27T02:14:07.988Z,17.70
2018-05-27T02:16:35.855Z,17.70
2018-05-27T02:19:03.722Z,17.70
2018-05-27T02:21:31.435Z,17.70
2018-05-27T02:24:00.071Z,17.60
2018-05-27T02:26:27.937Z,17.60
2018-05-27T02:28:55.806Z,17.60
2018-05-27T02:31:23.671Z,17.50
2018-05-27T02:33:51.538Z,17.50
2018-05-27T02:36:19.302Z,17.50
2018-05-27T02:38:46.973Z,17.50
2018-05-27T02:41:14.768Z,17.50
2018-05-27T02:43:43.313Z,17.50
2018-05-27T02:46:11.081Z,17.40
2018-05-27T02:48:38.944Z,17.50
2018-05-27T02:51:06.720Z,17.40
2018-05-27T02:53:34.575Z,17.40
2018-05-27T02:56:02.442Z,17.40
2018-05-27T02:58:30.244Z,17.40
2018-05-27T03:00:58.893Z,17.30
2018-05-27T03:03:26.759Z,17.30
2018-05-27T03:05:54.563Z,17.30
2018-05-27T03:08:23.107Z,17.30
2018-05-27T03:10:50.913Z,17.30
2018-05-27T03:13:19.484Z,17.30
2018-05-27T03:15:47.321Z,17.30
2018-05-27T03:18:15.124Z,17.30
2018-05-27T03:20:43.772Z,17.30
2018-05-27T03:23:11.639Z,17.30
2018-05-27T03:25:39.445Z,17.30
2018-05-27T03:28:07.996Z,17.20
2018-05-27T03:30:35.854Z,17.20
2018-05-27T03:33:03.721Z,17.20
2018-05-27T03:35:31.526Z,17.20
2018-05-27T03:37:59.997Z,17.20
2018-05-27T03:40:27.836Z,17.20
2018-05-27T03:42:55.633Z,17.30
2018-05-27T03:45:24.185Z,17.30
2018-05-27T03:47:52.150Z,17.30
2018-05-27T03:50:19.953Z,17.30
2018-05-27T03:52:48.600Z,17.30
2018-05-27T03:55:16.467Z,17.30
2018-05-27T03:57:45.152Z,17.40
2018-05-27T04:00:12.868Z,17.40
2018-05-27T04:02:41.418Z,17.50
2018-05-27T04:05:21.181Z,17.50
2018-05-27T04:08:00.890Z,17.50
2018-05-27T04:10:28.682Z,17.60
2018-05-27T04:12:56.526Z,17.60
2018-05-27T04:15:24.285Z,17.70
2018-05-27T04:17:52.255Z,17.80
2018-05-27T04:20:20.019Z,17.90
2018-05-27T04:22:47.889Z,17.90
2018-05-27T04:25:15.752Z,18.00
2018-05-27T04:27:43.619Z,18.00
2018-05-27T04:30:11.488Z,18.10
2018-05-27T04:32:39.290Z,18.20
2018-05-27T04:35:07.867Z,18.30
2018-05-27T04:37:35.702Z,18.20
2018-05-27T04:40:04.258Z,18.30
2018-05-27T04:42:32.151Z,18.40
2018-05-27T04:44:59.938Z,18.40
2018-05-27T04:47:27.885Z,18.40
2018-05-27T04:49:55.649Z,18.50
2018-05-27T04:52:23.414Z,18.50
2018-05-27T04:54:51.281Z,18.50
2018-05-27T04:57:19.084Z,18.50
2018-05-27T04:59:47.526Z,18.50
2018-05-27T05:02:15.065Z,18.50
2018-05-27T05:04:42.590Z,18.60
2018-05-27T05:07:10.093Z,18.60
2018-05-27T05:09:37.630Z,18.70
2018-05-27T05:12:05.910Z,18.80
2018-05-27T05:14:34.195Z,18.80
2018-05-27T05:17:02.461Z,18.90
2018-05-27T05:19:30.730Z,18.90
2018-05-27T05:21:59.012Z,18.90
2018-05-27T05:24:26.529Z,18.90
2018-05-27T05:26:54.033Z,19.00
2018-05-27T05:29:22.297Z,19.10
2018-05-27T05:31:50.574Z,19.10
2018-05-27T05:34:18.855Z,19.10
2018-05-27T05:36:47.124Z,19.20
2018-05-27T05:39:14.633Z,19.20
2018-05-27T05:41:42.133Z,19.20
2018-05-27T05:44:10.397Z,19.30
2018-05-27T05:46:37.906Z,19.20
2018-05-27T05:49:05.417Z,19.30
2018-05-27T05:51:32.951Z,19.30
2018-05-27T05:54:00.457Z,19.40
2018-05-27T05:56:28.733Z,19.50
2018-05-27T05:58:57.010Z,19.50
2018-05-27T06:01:25.301Z,19.60
2018-05-27T06:03:53.577Z,19.60
2018-05-27T06:06:21.846Z,19.70
2018-05-27T06:08:50.135Z,19.80
2018-05-27T06:11:17.662Z,19.70
2018-05-27T06:13:45.925Z,19.80
2018-05-27T06:16:13.429Z,19.80
2018-05-27T06:18:40.947Z,19.80
2018-05-27T06:21:09.958Z,19.90
2018-05-27T06:23:37.529Z,19.90
2018-05-27T06:26:06.002Z,20.10
2018-05-27T06:28:34.270Z,20.20
2018-05-27T06:31:02.556Z,20.30
2018-05-27T06:33:30.838Z,20.30
2018-05-27T06:35:59.107Z,20.40
2018-05-27T06:38:27.382Z,20.40
2018-05-27T06:40:55.653Z,20.50
2018-05-27T06:43:23.186Z,20.50
2018-05-27T06:45:50.718Z,20.60
2018-05-27T06:48:18.240Z,20.70
2018-05-27T06:50:46.505Z,20.80
2018-05-27T06:53:14.082Z,20.80
2018-05-27T06:55:42.361Z,21.00
2018-05-27T06:58:10.641Z,21.10
2018-05-27T07:00:38.922Z,21.20
2018-05-27T07:03:06.437Z,21.20
2018-05-27T07:05:33.934Z,21.30
2018-05-27T07:08:02.194Z,21.40
2018-05-27T07:10:30.478Z,21.50
2018-05-27T07:12:58.766Z,21.60
2018-05-27T07:15:27.045Z,21.70
2018-05-27T07:17:54.553Z,21.70
2018-05-27T07:20:22.054Z,21.80
2018-05-27T07:22:50.318Z,22.10
2018-05-27T07:25:18.602Z,22.20
2018-05-27T07:27:46.869Z,22.30
2018-05-27T07:30:15.145Z,22.40
2018-05-27T07:32:43.413Z,22.50
2018-05-27T07:35:10.929Z,22.50
2018-05-27T07:37:38.429Z,22.60
2018-05-27T07:40:05.926Z,22.70
2018-05-27T07:42:33.471Z,22.80
2018-05-27T07:45:01.758Z,23.00
2018-05-27T07:47:29.276Z,23.00
2018-05-27T07:49:56.803Z,23.10
2018-05-27T07:52:24.313Z,23.20
2018-05-27T07:54:52.578Z,23.40
2018-05-27T07:57:20.853Z,23.50
2018-05-27T07:59:48.381Z,23.50
2018-05-27T08:02:15.874Z,23.70
2018-05-27T08:04:43.374Z,23.80
2018-05-27T08:07:10.881Z,23.90
2018-05-27T08:09:38.377Z,24.10
2018-05-27T08:12:05.885Z,24.20
2018-05-27T08:14:33.390Z,24.30
2018-05-27T08:17:00.894Z,24.50
2018-05-27T08:19:29.158Z,24.80
2018-05-27T08:21:56.661Z,24.80
2018-05-27T08:24:24.942Z,24.90
2018-05-27T08:26:53.242Z,25.00
2018-05-27T08:29:20.746Z,25.00
2018-05-27T08:31:48.241Z,25.20
2018-05-27T08:34:16.501Z,25.30
2018-05-27T08:36:43.996Z,25.30
2018-05-27T08:39:11.489Z,25.40
2018-05-27T08:41:38.988Z,25.60
2018-05-27T08:44:07.246Z,25.70
2018-05-27T08:46:34.750Z,25.70
2018-05-27T08:49:02.330Z,25.90
2018-05-27T08:51:29.812Z,26.00
2018-05-27T08:53:57.313Z,26.00
2018-05-27T08:56:24.829Z,26.00
2018-05-27T08:58:53.831Z,26.20
2018-05-27T09:01:22.157Z,26.30
2018-05-27T09:03:50.397Z,26.40
2018-05-27T09:06:18.682Z,26.50
2018-05-27T09:08:46.951Z,26.60
2018-05-27T09:11:15.213Z,26.60
2018-05-27T09:13:42.734Z,26.60
2018-05-27T09:16:10.227Z,26.70
2018-05-27T09:18:37.813Z,26.70
2018-05-27T09:21:06.073Z,26.80
2018-05-27T09:23:33.570Z,26.70
2018-05-27T09:26:01.074Z,26.80
2018-05-27T09:28:28.589Z,26.90
2018-05-27T09:30:56.110Z,27.00
2018-05-27T09:33:25.130Z,27.10
2018-05-27T09:35:52.705Z,27.10
2018-05-27T09:38:20.217Z,27.20
2018-05-27T09:40:48.510Z,27.40
2018-05-27T09:43:16.794Z,27.40
2018-05-27T09:45:45.069Z,27.40
2018-05-27T09:48:13.355Z,27.40
2018-05-27T09:50:40.869Z,27.40
2018-05-27T09:53:08.358Z,27.50
2018-05-27T09:55:36.628Z,27.60
2018-05-27T09:58:04.968Z,27.70
2018-05-27T10:00:33.199Z,27.80
2018-05-27T10:03:00.701Z,27.70
2018-05-27T10:05:28.197Z,27.80
2018-05-27T10:07:56.465Z,28.00
2018-05-27T10:10:23.953Z,27.90
2018-05-27T10:12:51.477Z,28.10
2018-05-27T10:15:18.983Z,28.20
2018-05-27T10:17:46.493Z,28.20
2018-05-27T10:20:14.749Z,28.30
2018-05-27T10:22:42.254Z,28.30
2018-05-27T10:25:10.517Z,28.50
2018-05-27T10:27:38.798Z,28.50
2018-05-27T10:30:07.057Z,28.60
2018-05-27T10:32:34.545Z,28.60
2018-05-27T10:35:02.800Z,28.70
2018-05-27T10:37:31.093Z,28.80
2018-05-27T10:39:59.378Z,28.90
2018-05-27T10:42:26.881Z,28.90
2018-05-27T10:44:54.375Z,29.10
2018-05-27T10:47:22.667Z,29.20
2018-05-27T10:49:50.934Z,29.30
2018-05-27T10:52:19.209Z,29.40
2018-05-27T10:54:47.485Z,29.50
2018-05-27T10:57:15.742Z,29.50
2018-05-27T10:59:43.237Z,29.50
2018-05-27T11:02:10.755Z,29.50
2018-05-27T11:04:38.258Z,29.60
2018-05-27T11:07:05.776Z,29.70
2018-05-27T11:09:33.267Z,29.70
2018-05-27T11:12:00.775Z,29.80
2018-05-27T11:14:28.281Z,29.80
2018-05-27T11:16:57.058Z,29.80
2018-05-27T11:19:25.333Z,30.00
2018-05-27T11:21:53.589Z,30.10
2018-05-27T11:24:21.098Z,30.00
2018-05-27T11:26:48.625Z,30.10
2018-05-27T11:29:16.889Z,30.30
2018-05-27T11:31:44.401Z,30.20
2018-05-27T11:34:11.896Z,30.40
2018-05-27T11:36:39.397Z,30.50
2018-05-27T11:39:06.906Z,30.60
2018-05-27T11:41:34.398Z,30.70
2018-05-27T11:44:02.658Z,30.90
2018-05-27T11:46:30.149Z,30.80
2018-05-27T11:48:57.642Z,30.90
2018-05-27T11:51:25.145Z,30.90
2018-05-27T11:53:53.401Z,31.00
2018-05-27T11:56:20.897Z,31.00
2018-05-27T11:58:48.422Z,30.90
2018-05-27T12:01:15.933Z,30.90
2018-05-27T12:03:43.430Z,30.90
2018-05-27T12:06:10.947Z,31.00
2018-05-27T12:08:38.465Z,31.10
2018-05-27T12:11:06.949Z,31.50
2018-05-27T12:13:35.222Z,31.50
2018-05-27T12:16:03.501Z,31.60
2018-05-27T12:18:31.778Z,31.70
2018-05-27T12:21:00.049Z,31.90
2018-05-27T12:23:27.543Z,31.90
2018-05-27T12:25:55.077Z,32.00
2018-05-27T12:28:23.346Z,32.10
2018-05-27T12:30:51.629Z,32.00
2018-05-27T12:33:19.930Z,32.00
2018-05-27T12:35:47.453Z,32.00
2018-05-27T12:38:14.946Z,32.20
2018-05-27T12:40:42.441Z,32.30
2018-05-27T12:43:09.934Z,32.50
2018-05-27T12:45:38.201Z,32.70
2018-05-27T12:48:05.721Z,32.60
2018-05-27T12:50:33.228Z,32.60
2018-05-27T12:53:01.487Z,32.50
2018-05-27T12:55:28.985Z,32.50
2018-05-27T12:57:56.502Z,32.30
2018-05-27T13:00:23.998Z,32.00
2018-05-27T13:02:51.493Z,31.80
2018-05-27T13:05:18.998Z,31.50
2018-05-27T13:07:47.257Z,30.70
2018-05-27T13:10:14.753Z,30.70
2018-05-27T13:12:42.265Z,30.30
2018-05-27T13:15:09.773Z,30.00
2018-05-27T13:17:37.266Z,29.80
2018-05-27T13:20:04.786Z,29.60
2018-05-27T13:22:32.318Z,29.50
2018-05-27T13:24:59.816Z,29.30
2018-05-27T13:27:27.308Z,29.20
2018-05-27T13:29:54.804Z,29.00
2018-05-27T13:32:23.078Z,28.80
2018-05-27T13:34:51.340Z,28.70
2018-05-27T13:37:18.833Z,28.70
2018-05-27T13:39:46.338Z,28.60
2018-05-27T13:42:13.837Z,28.50
2018-05-27T13:44:42.104Z,28.40
2018-05-27T13:47:10.369Z,28.30
2018-05-27T13:49:37.861Z,28.30
2018-05-27T13:52:05.354Z,28.20
2018-05-27T13:54:32.865Z,28.10
2018-05-27T13:57:01.125Z,28.00
2018-05-27T13:59:29.390Z,27.90
2018-05-27T14:01:56.898Z,27.90
2018-05-27T14:04:24.401Z,27.90
2018-05-27T14:06:51.906Z,27.80
2018-05-27T14:09:19.421Z,27.80
2018-05-27T14:11:46.913Z,27.70
2018-05-27T14:14:15.169Z,27.60
2018-05-27T14:16:43.461Z,27.50
2018-05-27T14:19:11.721Z,27.50
2018-05-27T14:21:40.005Z,27.40
2018-05-27T14:24:08.288Z,27.40
2018-05-27T14:26:36.545Z,27.30
2018-05-27T14:29:04.057Z,27.30
2018-05-27T14:31:31.608Z,27.30
2018-05-27T14:33:59.108Z,27.30
2018-05-27T14:36:26.601Z,27.20
2018-05-27T14:38:54.898Z,27.10
2018-05-27T14:41:23.139Z,27.10
2018-05-27T14:43:51.422Z,27.10
2018-05-27T14:46:19.685Z,27.10
2018-05-27T14:48:47.184Z,27.10
2018-05-27T14:51:14.686Z,27.10
2018-05-27T14:53:42.189Z,27.10
2018-05-27T14:56:09.705Z,27.10
2018-05-27T14:58:37.217Z,27.10
2018-05-27T15:01:04.712Z,27.10
2018-05-27T15:03:32.207Z,27.00
2018-05-27T15:06:00.481Z,26.90
2018-05-27T15:08:28.741Z,26.90
2018-05-27T15:10:56.238Z,26.90
2018-05-27T15:13:23.746Z,26.80
2018-05-27T15:15:51.234Z,26.80
2018-05-27T15:18:19.489Z,26.70
2018-05-27T15:20:47.001Z,26.70
2018-05-27T15:23:14.507Z,26.70
2018-05-27T15:25:41.998Z,26.60
2018-05-27T15:28:10.269Z,26.60
2018-05-27T15:30:38.530Z,26.60
2018-05-27T15:33:06.805Z,26.50
2018-05-27T15:35:35.077Z,26.50
2018-05-27T15:38:02.578Z,26.50
2018-05-27T15:40:30.089Z,26.50
2018-05-27T15:42:58.345Z,26.40
2018-05-27T15:45:25.867Z,26.40
2018-05-27T15:47:53.377Z,26.40
2018-05-27T15:50:22.381Z,26.30
2018-05-27T15:52:50.681Z,26.30
2018-05-27T15:55:18.941Z,26.30
2018-05-27T15:57:47.206Z,26.20
2018-05-27T16:00:14.805Z,26.20
2018-05-27T16:02:42.298Z,26.20
2018-05-27T16:05:09.801Z,26.20
2018-05-27T16:07:38.066Z,26.20
2018-05-27T16:10:07.485Z,26.20
2018-05-27T16:12:35.746Z,26.20
2018-05-27T16:15:03.254Z,26.20
2018-05-27T16:17:30.758Z,26.20
2018-05-27T16:19:58.258Z,26.20
2018-05-27T16:22:25.755Z,26.20
2018-05-27T16:24:53.254Z,26.20
2018-05-27T16:27:21.514Z,26.20
2018-05-27T16:29:49.014Z,26.20
2018-05-27T16:32:16.573Z,26.20
2018-05-27T16:34:44.085Z,26.20
2018-05-27T16:37:12.357Z,26.30
2018-05-27T16:39:39.865Z,26.30
2018-05-27T16:42:07.366Z,26.30
2018-05-27T16:44:34.854Z,26.30
2018-05-27T16:47:03.117Z,26.30
2018-05-27T16:49:30.641Z,26.30
2018-05-27T16:51:58.129Z,26.30
2018-05-27T16:54:25.705Z,26.30
2018-05-27T16:56:53.963Z,26.30
2018-05-27T16:59:21.478Z,26.30
2018-05-27T17:01:48.994Z,26.30
2018-05-27T17:04:17.253Z,26.30
2018-05-27T17:06:44.750Z,26.30
2018-05-27T17:09:12.281Z,26.20
2018-05-27T17:11:40.561Z,26.20
2018-05-27T17:14:08.875Z,26.20
2018-05-27T17:16:37.230Z,27.60
2018-05-27T17:19:05.490Z,31.60
2018-05-27T17:21:33.749Z,37.00
2018-05-27T17:24:01.260Z,36.90
2018-05-27T17:26:28.783Z,41.50
2018-05-27T17:28:56.409Z,40.60
2018-05-27T17:31:23.966Z,42.40
2018-05-27T17:33:51.528Z,44.20
2018-05-27T17:36:19.480Z,45.00
2018-05-27T17:38:47.001Z,47.90
2018-05-27T17:41:15.278Z,47.50
2018-05-27T17:43:43.545Z,47.80
2018-05-27T17:46:11.053Z,47.80
2018-05-27T17:48:38.578Z,48.10
2018-05-27T17:51:06.837Z,50.20
2018-05-27T17:53:34.644Z,50.10
2018-05-27T17:56:02.173Z,50.60
2018-05-27T17:58:30.446Z,50.10
2018-05-27T18:00:58.725Z,48.40
2018-05-27T18:03:26.993Z,46.00
2018-05-27T18:05:55.295Z,43.30
2018-05-27T18:08:22.806Z,43.20
2018-05-27T18:10:50.305Z,41.20
2018-05-27T18:13:18.562Z,38.00
2018-05-27T18:15:46.836Z,37.90
2018-05-27T18:18:14.357Z,37.90
2018-05-27T18:20:41.890Z,39.80
2018-05-27T18:23:09.410Z,43.00
2018-05-27T18:25:37.718Z,48.50
2018-05-27T18:28:05.230Z,48.50
2018-05-27T18:30:32.735Z,50.80
2018-05-27T18:33:00.258Z,52.40
2018-05-27T18:35:27.765Z,50.30
2018-05-27T18:37:55.277Z,47.30
2018-05-27T18:40:22.778Z,44.40
2018-05-27T18:42:50.281Z,41.80
2018-05-27T18:45:17.886Z,39.40
2018-05-27T18:47:45.425Z,37.50
2018-05-27T18:50:13.705Z,34.60
2018-05-27T18:52:41.981Z,33.30
2018-05-27T18:55:10.289Z,32.30
2018-05-27T18:57:38.537Z,31.40
2018-05-27T19:00:06.796Z,30.60
2018-05-27T19:02:35.054Z,30.00
2018-05-27T19:05:02.546Z,29.90
2018-05-27T19:07:30.815Z,28.90
2018-05-27T19:09:59.137Z,28.40
2018-05-27T19:12:27.369Z,28.00
2018-05-27T19:14:55.635Z,27.70
2018-05-27T19:17:23.180Z,27.60
2018-05-27T19:19:50.674Z,27.40
2018-05-27T19:22:18.966Z,26.70
2018-05-27T19:24:48.242Z,26.70
2018-05-27T19:27:15.971Z,26.50
2018-05-27T19:29:44.788Z,26.00
2018-05-27T19:32:13.144Z,25.70
2018-05-27T19:34:40.637Z,25.70
2018-05-27T19:37:08.905Z,25.30
2018-05-27T19:39:37.169Z,25.10
2018-05-27T19:42:04.712Z,25.10
2018-05-27T19:44:32.165Z,24.90
2018-05-27T19:46:59.654Z,24.80
2018-05-27T19:49:27.925Z,24.40
2018-05-27T19:51:56.047Z,24.40
2018-05-27T19:54:23.539Z,24.30
2018-05-27T19:56:51.045Z,24.10
2018-05-27T19:59:18.548Z,24.00
2018-05-27T20:01:46.042Z,23.80
2018-05-27T20:04:14.329Z,23.60
2018-05-27T20:06:42.619Z,23.50
2018-05-27T20:09:11.795Z,23.40
2018-05-27T20:11:40.078Z,23.40
2018-05-27T20:14:09.278Z,23.30
2018-05-27T20:16:37.549Z,23.20
2018-05-27T20:19:05.823Z,23.10
2018-05-27T20:21:34.102Z,23.00
2018-05-27T20:24:02.370Z,22.90
2018-05-27T20:26:30.646Z,22.90
2018-05-27T20:28:58.921Z,22.80
2018-05-27T20:31:27.306Z,22.70
2018-05-27T20:33:55.573Z,22.70
2018-05-27T20:36:23.081Z,22.60
2018-05-27T20:38:50.597Z,22.60
2018-05-27T20:41:18.860Z,22.50
2018-05-27T20:43:46.385Z,22.40
2018-05-27T20:46:13.881Z,22.40
2018-05-27T20:48:41.405Z,22.40
2018-05-27T20:51:08.932Z,22.30
2018-05-27T20:53:37.191Z,22.20
2018-05-27T20:56:05.459Z,22.10
2018-05-27T20:58:33.733Z,22.10
2018-05-27T21:01:01.234Z,22.10
2018-05-27T21:03:28.751Z,22.10
2018-05-27T21:05:57.014Z,22.00
2018-05-27T21:08:24.509Z,21.90
2018-05-27T21:10:52.025Z,21.90
2018-05-27T21:13:19.540Z,21.80
2018-05-27T21:15:47.050Z,21.80
2018-05-27T21:18:14.555Z,21.70
2018-05-27T21:20:42.084Z,21.60
2018-05-27T21:23:10.350Z,21.60
2018-05-27T21:25:37.850Z,21.60
2018-05-27T21:28:05.349Z,21.60
2018-05-27T21:30:32.857Z,21.50
2018-05-27T21:33:00.362Z,21.50
2018-05-27T21:35:27.866Z,21.50
2018-05-27T21:37:56.122Z,21.40
2018-05-27T21:40:24.406Z,21.40
2018-05-27T21:42:52.685Z,21.40
2018-05-27T21:45:20.949Z,21.30
2018-05-27T21:47:48.461Z,21.30
2018-05-27T21:50:15.958Z,21.30
2018-05-27T21:52:43.535Z,21.20
2018-05-27T21:55:11.801Z,21.20
2018-05-27T21:57:39.296Z,21.20
2018-05-27T22:00:06.791Z,21.20
2018-05-27T22:02:34.299Z,21.10
2018-05-27T22:05:01.792Z,21.00
2018-05-27T22:07:29.289Z,21.00
2018-05-27T22:09:56.802Z,21.00
2018-05-27T22:12:24.305Z,21.00
2018-05-27T22:14:53.305Z,20.90
2018-05-27T22:17:21.578Z,20.90
2018-05-27T22:19:49.077Z,20.90
2018-05-27T22:22:16.574Z,20.90
2018-05-27T22:24:44.073Z,20.80
2018-05-27T22:27:12.334Z,20.80
2018-05-27T22:29:40.891Z,20.80
2018-05-27T22:32:09.541Z,20.80
2018-05-27T22:34:37.345Z,20.80
2018-05-27T22:37:05.174Z,20.90
2018-05-27T22:39:33.081Z,20.80
2018-05-27T22:42:01.014Z,20.80
2018-05-27T22:44:28.874Z,20.80
2018-05-27T22:46:56.742Z,20.80
2018-05-27T22:49:24.610Z,20.80
2018-05-27T22:51:52.412Z,20.80
2018-05-27T22:54:21.059Z,20.80
2018-05-27T22:56:48.857Z,20.80
2018-05-27T22:59:16.793Z,20.80
2018-05-27T23:01:44.659Z,20.80
2018-05-27T23:04:12.425Z,20.80
2018-05-27T23:06:40.291Z,20.80
2018-05-27T23:09:08.095Z,20.80
2018-05-27T23:11:35.922Z,20.70
2018-05-27T23:14:03.697Z,20.70
2018-05-27T23:16:31.481Z,20.70
2018-05-27T23:19:00.035Z,20.60
2018-05-27T23:21:27.801Z,20.60
2018-05-27T23:23:55.565Z,20.60
2018-05-27T23:26:23.430Z,20.60
2018-05-27T23:28:51.195Z,20.50
2018-05-27T23:31:19.060Z,20.60
2018-05-27T23:33:46.928Z,20.50
2018-05-27T23:36:14.727Z,20.50
2018-05-27T23:38:42.562Z,20.50
2018-05-27T23:41:10.354Z,20.50
2018-05-27T23:43:38.908Z,20.50
2018-05-27T23:46:06.775Z,20.40
2018-05-27T23:48:34.641Z,20.50
2018-05-27T23:51:02.508Z,20.40
2018-05-27T23:53:30.375Z,20.30
2018-05-27T23:55:58.102Z,20.30
2018-05-27T23:58:26.723Z,20.40
